Decoded Metar for DTTZ (TOZEUR in TUNISIA) (IATA:TOE) | Meteo·Mobile Aviation Weather
aviador You're here:

DTTZ Decoded Metar

TOZEUR in TUNISIA
Report Time2018-09-19 14:00:00
UTC Time2018-09-19 14:59:55
Flight Rules vfr VFR
Wind200° at 06 kt
W.Decomp.*RWY 27: 2.0 kt HW 5.7 kt LCW
W.Rank200° ranks 26
Current wind is below 200° avg. (7.5)
Visibility9999 m
Phenomena:N/A
Clouds:Scattered 040 Hf
Expected CloudBase > 9,200 ft AGL from Temp-Dew spread
CeilingNone
Temp36°C (ISA +22)
Dew Point13°C (25% RH)
Heat Index35.0°C
AAT34.7°C
QNH1015 hPa
Density Alt2,887 ft
Elevation305 ft
Report Wrong Elevation
Raw Report
METAR DTTZ 191400Z 20006KT 140V230 9999 SCT040 36/13 Q1015 NOSIG=####018001754####
SAEU KAWN 191400 RRO

Extra information for DTTZ:More info

Metar Taf Metar & Taf Last 4 Metars F.Rules Stats Wind Profile Meteogram Temp Stats Airport Information Weather charts Add Link Nearby VenuesMetar ALERT Operation Metar Decoded Social comments